sensor_id;sensor_type;location;lat;lon;timestamp;P1;durP1;ratioP1;P2;durP2;ratioP2
17173;SDS011;8702;48.130;-1.696;2022-07-06T00:00:09;20.10;;;4.13;;
17173;SDS011;8702;48.130;-1.696;2022-07-06T00:02:37;40.80;;;6.17;;
17173;SDS011;8702;48.130;-1.696;2022-07-06T00:05:04;22.70;;;4.80;;
17173;SDS011;8702;48.130;-1.696;2022-07-06T00:07:31;31.20;;;6.60;;
17173;SDS011;8702;48.130;-1.696;2022-07-06T00:09:58;36.87;;;6.13;;
17173;SDS011;8702;48.130;-1.696;2022-07-06T00:12:25;45.73;;;7.03;;
17173;SDS011;8702;48.130;-1.696;2022-07-06T00:14:54;33.73;;;5.07;;
17173;SDS011;8702;48.130;-1.696;2022-07-06T00:17:21;25.83;;;4.10;;
17173;SDS011;8702;48.130;-1.696;2022-07-06T00:19:48;17.27;;;3.97;;
17173;SDS011;8702;48.130;-1.696;2022-07-06T00:22:15;14.67;;;3.67;;
17173;SDS011;8702;48.130;-1.696;2022-07-06T00:24:42;26.93;;;5.47;;
17173;SDS011;8702;48.130;-1.696;2022-07-06T00:27:09;39.30;;;6.40;;
17173;SDS011;8702;48.130;-1.696;2022-07-06T00:29:36;38.23;;;5.93;;
17173;SDS011;8702;48.130;-1.696;2022-07-06T00:32:05;34.53;;;5.47;;
17173;SDS011;8702;48.130;-1.696;2022-07-06T00:34:32;22.00;;;4.13;;
17173;SDS011;8702;48.130;-1.696;2022-07-06T00:37:00;11.87;;;3.00;;
17173;SDS011;8702;48.130;-1.696;2022-07-06T00:39:27;9.03;;;3.00;;
17173;SDS011;8702;48.130;-1.696;2022-07-06T00:41:54;9.57;;;2.93;;
17173;SDS011;8702;48.130;-1.696;2022-07-06T00:44:21;8.37;;;2.63;;
17173;SDS011;8702;48.130;-1.696;2022-07-06T00:46:48;8.03;;;2.60;;
17173;SDS011;8702;48.130;-1.696;2022-07-06T00:49:17;9.73;;;2.63;;
17173;SDS011;8702;48.130;-1.696;2022-07-06T00:52:02;5.67;;;2.70;;
17173;SDS011;8702;48.130;-1.696;2022-07-06T00:54:30;9.40;;;2.43;;
17173;SDS011;8702;48.130;-1.696;2022-07-06T00:56:58;9.93;;;2.87;;
17173;SDS011;8702;48.130;-1.696;2022-07-06T00:59:25;10.40;;;2.90;;
17173;SDS011;8702;48.130;-1.696;2022-07-06T01:01:54;9.63;;;2.73;;
17173;SDS011;8702;48.130;-1.696;2022-07-06T01:04:22;7.27;;;2.60;;
17173;SDS011;8702;48.130;-1.696;2022-07-06T01:06:49;8.90;;;2.60;;
17173;SDS011;8702;48.130;-1.696;2022-07-06T01:09:17;6.17;;;2.60;;
17173;SDS011;8702;48.130;-1.696;2022-07-06T01:11:47;7.40;;;2.93;;
17173;SDS011;8702;48.130;-1.696;2022-07-06T01:14:14;12.03;;;3.03;;
17173;SDS011;8702;48.130;-1.696;2022-07-06T01:16:42;13.83;;;2.97;;
17173;SDS011;8702;48.130;-1.696;2022-07-06T01:19:10;9.70;;;2.80;;
17173;SDS011;8702;48.130;-1.696;2022-07-06T01:21:38;12.33;;;3.40;;
17173;SDS011;8702;48.130;-1.696;2022-07-06T01:24:06;12.53;;;3.10;;
17173;SDS011;8702;48.130;-1.696;2022-07-06T01:26:33;7.23;;;3.00;;
17173;SDS011;8702;48.130;-1.696;2022-07-06T01:29:00;9.63;;;2.93;;
17173;SDS011;8702;48.130;-1.696;2022-07-06T01:31:27;7.80;;;2.93;;
17173;SDS011;8702;48.130;-1.696;2022-07-06T01:33:54;6.43;;;2.50;;
17173;SDS011;8702;48.130;-1.696;2022-07-06T01:36:22;11.30;;;3.23;;
17173;SDS011;8702;48.130;-1.696;2022-07-06T01:38:51;8.87;;;2.83;;
17173;SDS011;8702;48.130;-1.696;2022-07-06T01:41:20;7.57;;;2.90;;
17173;SDS011;8702;48.130;-1.696;2022-07-06T01:43:47;10.07;;;2.87;;
17173;SDS011;8702;48.130;-1.696;2022-07-06T01:46:14;9.70;;;3.30;;
17173;SDS011;8702;48.130;-1.696;2022-07-06T01:48:42;7.77;;;2.77;;
17173;SDS011;8702;48.130;-1.696;2022-07-06T01:51:09;8.53;;;3.13;;
17173;SDS011;8702;48.130;-1.696;2022-07-06T01:53:37;9.97;;;3.10;;
17173;SDS011;8702;48.130;-1.696;2022-07-06T01:56:06;10.53;;;3.63;;
17173;SDS011;8702;48.130;-1.696;2022-07-06T01:58:33;8.37;;;2.83;;
17173;SDS011;8702;48.130;-1.696;2022-07-06T02:01:00;6.87;;;2.80;;
17173;SDS011;8702;48.130;-1.696;2022-07-06T02:03:33;7.67;;;3.13;;
17173;SDS011;8702;48.130;-1.696;2022-07-06T02:06:00;9.43;;;3.00;;
17173;SDS011;8702;48.130;-1.696;2022-07-06T02:08:27;9.47;;;3.23;;
17173;SDS011;8702;48.130;-1.696;2022-07-06T02:10:54;7.97;;;2.80;;
17173;SDS011;8702;48.130;-1.696;2022-07-06T02:13:22;8.90;;;2.93;;
17173;SDS011;8702;48.130;-1.696;2022-07-06T02:15:49;7.73;;;3.03;;
17173;SDS011;8702;48.130;-1.696;2022-07-06T02:18:16;8.77;;;3.00;;
17173;SDS011;8702;48.130;-1.696;2022-07-06T02:20:43;6.27;;;2.30;;
17173;SDS011;8702;48.130;-1.696;2022-07-06T02:23:10;8.83;;;3.17;;
17173;SDS011;8702;48.130;-1.696;2022-07-06T02:25:37;6.83;;;2.60;;
17173;SDS011;8702;48.130;-1.696;2022-07-06T02:28:04;9.20;;;3.07;;
17173;SDS011;8702;48.130;-1.696;2022-07-06T02:30:33;11.17;;;3.40;;
17173;SDS011;8702;48.130;-1.696;2022-07-06T02:33:00;9.63;;;2.83;;
17173;SDS011;8702;48.130;-1.696;2022-07-06T02:35:27;8.57;;;2.83;;
17173;SDS011;8702;48.130;-1.696;2022-07-06T02:37:54;5.87;;;2.90;;
17173;SDS011;8702;48.130;-1.696;2022-07-06T02:40:21;9.30;;;2.80;;
17173;SDS011;8702;48.130;-1.696;2022-07-06T02:42:48;9.47;;;2.90;;
17173;SDS011;8702;48.130;-1.696;2022-07-06T02:45:15;7.23;;;2.80;;
17173;SDS011;8702;48.130;-1.696;2022-07-06T02:47:43;8.93;;;3.07;;
17173;SDS011;8702;48.130;-1.696;2022-07-06T02:50:10;5.57;;;2.70;;
17173;SDS011;8702;48.130;-1.696;2022-07-06T02:52:37;6.13;;;2.50;;
17173;SDS011;8702;48.130;-1.696;2022-07-06T02:55:05;6.23;;;2.50;;
17173;SDS011;8702;48.130;-1.696;2022-07-06T02:57:32;7.90;;;3.17;;
17173;SDS011;8702;48.130;-1.696;2022-07-06T02:59:59;8.97;;;2.80;;
17173;SDS011;8702;48.130;-1.696;2022-07-06T03:02:26;5.10;;;2.67;;
17173;SDS011;8702;48.130;-1.696;2022-07-06T03:04:54;11.17;;;3.57;;
17173;SDS011;8702;48.130;-1.696;2022-07-06T03:07:22;9.83;;;3.30;;
17173;SDS011;8702;48.130;-1.696;2022-07-06T03:09:49;8.00;;;3.47;;
17173;SDS011;8702;48.130;-1.696;2022-07-06T03:12:16;7.87;;;3.43;;
17173;SDS011;8702;48.130;-1.696;2022-07-06T03:14:43;7.80;;;3.60;;
17173;SDS011;8702;48.130;-1.696;2022-07-06T03:17:10;10.13;;;3.40;;
17173;SDS011;8702;48.130;-1.696;2022-07-06T03:19:37;8.07;;;3.43;;
17173;SDS011;8702;48.130;-1.696;2022-07-06T03:22:06;4.77;;;2.97;;
17173;SDS011;8702;48.130;-1.696;2022-07-06T03:24:33;8.70;;;3.50;;
17173;SDS011;8702;48.130;-1.696;2022-07-06T03:27:00;8.43;;;3.03;;
17173;SDS011;8702;48.130;-1.696;2022-07-06T03:29:27;8.37;;;3.50;;
17173;SDS011;8702;48.130;-1.696;2022-07-06T03:31:54;7.40;;;3.47;;
17173;SDS011;8702;48.130;-1.696;2022-07-06T03:34:21;8.07;;;3.37;;
17173;SDS011;8702;48.130;-1.696;2022-07-06T03:36:48;7.50;;;3.50;;
17173;SDS011;8702;48.130;-1.696;2022-07-06T03:39:16;5.63;;;3.23;;
17173;SDS011;8702;48.130;-1.696;2022-07-06T03:41:43;6.80;;;3.30;;
17173;SDS011;8702;48.130;-1.696;2022-07-06T03:44:10;6.80;;;3.33;;
17173;SDS011;8702;48.130;-1.696;2022-07-06T03:46:37;6.07;;;3.00;;
17173;SDS011;8702;48.130;-1.696;2022-07-06T03:49:04;6.93;;;3.57;;
17173;SDS011;8702;48.130;-1.696;2022-07-06T03:51:31;7.07;;;4.23;;
17173;SDS011;8702;48.130;-1.696;2022-07-06T03:53:58;5.97;;;3.80;;
17173;SDS011;8702;48.130;-1.696;2022-07-06T03:56:26;5.27;;;3.60;;
17173;SDS011;8702;48.130;-1.696;2022-07-06T03:58:58;5.63;;;3.07;;
17173;SDS011;8702;48.130;-1.696;2022-07-06T04:01:26;6.10;;;3.23;;
17173;SDS011;8702;48.130;-1.696;2022-07-06T04:03:53;5.17;;;3.40;;
17173;SDS011;8702;48.130;-1.696;2022-07-06T04:06:20;4.87;;;3.20;;
17173;SDS011;8702;48.130;-1.696;2022-07-06T04:08:47;6.17;;;3.57;;
17173;SDS011;8702;48.130;-1.696;2022-07-06T04:11:14;6.07;;;3.67;;
17173;SDS011;8702;48.130;-1.696;2022-07-06T04:13:42;5.60;;;3.83;;
17173;SDS011;8702;48.130;-1.696;2022-07-06T04:16:09;5.83;;;3.50;;
17173;SDS011;8702;48.130;-1.696;2022-07-06T04:18:36;6.57;;;3.43;;
17173;SDS011;8702;48.130;-1.696;2022-07-06T04:21:03;6.17;;;3.70;;
17173;SDS011;8702;48.130;-1.696;2022-07-06T04:23:30;5.57;;;3.10;;
17173;SDS011;8702;48.130;-1.696;2022-07-06T04:25:58;10.13;;;3.50;;
17173;SDS011;8702;48.130;-1.696;2022-07-06T04:28:25;6.23;;;3.10;;
17173;SDS011;8702;48.130;-1.696;2022-07-06T04:30:53;6.43;;;2.90;;
17173;SDS011;8702;48.130;-1.696;2022-07-06T04:33:20;8.57;;;3.27;;
17173;SDS011;8702;48.130;-1.696;2022-07-06T04:35:47;5.63;;;2.80;;
17173;SDS011;8702;48.130;-1.696;2022-07-06T04:38:14;9.20;;;3.50;;
17173;SDS011;8702;48.130;-1.696;2022-07-06T04:40:41;6.13;;;3.17;;
17173;SDS011;8702;48.130;-1.696;2022-07-06T04:43:11;5.53;;;3.40;;
17173;SDS011;8702;48.130;-1.696;2022-07-06T04:45:38;6.00;;;3.70;;
17173;SDS011;8702;48.130;-1.696;2022-07-06T04:48:06;5.63;;;4.50;;
17173;SDS011;8702;48.130;-1.696;2022-07-06T04:50:34;7.73;;;4.50;;
17173;SDS011;8702;48.130;-1.696;2022-07-06T04:53:01;7.20;;;4.83;;
17173;SDS011;8702;48.130;-1.696;2022-07-06T04:55:29;5.23;;;4.50;;
17173;SDS011;8702;48.130;-1.696;2022-07-06T04:57:56;4.93;;;4.43;;
17173;SDS011;8702;48.130;-1.696;2022-07-06T05:00:23;4.97;;;4.47;;
17173;SDS011;8702;48.130;-1.696;2022-07-06T05:02:50;7.07;;;5.00;;
17173;SDS011;8702;48.130;-1.696;2022-07-06T05:05:18;7.77;;;5.23;;
17173;SDS011;8702;48.130;-1.696;2022-07-06T05:07:45;9.33;;;4.93;;
17173;SDS011;8702;48.130;-1.696;2022-07-06T05:10:12;5.63;;;4.70;;
17173;SDS011;8702;48.130;-1.696;2022-07-06T05:12:40;8.90;;;4.97;;
17173;SDS011;8702;48.130;-1.696;2022-07-06T05:15:07;8.23;;;5.20;;
17173;SDS011;8702;48.130;-1.696;2022-07-06T05:17:35;8.20;;;5.50;;
17173;SDS011;8702;48.130;-1.696;2022-07-06T05:20:02;7.60;;;4.83;;
17173;SDS011;8702;48.130;-1.696;2022-07-06T05:22:31;6.17;;;5.57;;
17173;SDS011;8702;48.130;-1.696;2022-07-06T05:24:58;8.10;;;5.50;;
17173;SDS011;8702;48.130;-1.696;2022-07-06T05:27:25;7.60;;;4.80;;
17173;SDS011;8702;48.130;-1.696;2022-07-06T05:29:52;6.37;;;4.53;;
17173;SDS011;8702;48.130;-1.696;2022-07-06T05:32:19;6.40;;;5.20;;
17173;SDS011;8702;48.130;-1.696;2022-07-06T05:34:46;6.40;;;4.87;;
17173;SDS011;8702;48.130;-1.696;2022-07-06T05:37:15;6.03;;;4.67;;
17173;SDS011;8702;48.130;-1.696;2022-07-06T05:39:44;5.40;;;4.90;;
17173;SDS011;8702;48.130;-1.696;2022-07-06T05:42:12;7.63;;;4.50;;
17173;SDS011;8702;48.130;-1.696;2022-07-06T05:44:39;5.97;;;4.17;;
17173;SDS011;8702;48.130;-1.696;2022-07-06T05:47:06;4.87;;;4.20;;
17173;SDS011;8702;48.130;-1.696;2022-07-06T05:49:51;5.63;;;4.40;;
17173;SDS011;8702;48.130;-1.696;2022-07-06T05:52:35;7.43;;;4.20;;
17173;SDS011;8702;48.130;-1.696;2022-07-06T05:55:03;5.20;;;4.20;;
17173;SDS011;8702;48.130;-1.696;2022-07-06T05:57:31;6.17;;;4.60;;
17173;SDS011;8702;48.130;-1.696;2022-07-06T05:59:58;5.97;;;4.10;;
17173;SDS011;8702;48.130;-1.696;2022-07-06T06:02:25;6.57;;;4.43;;
17173;SDS011;8702;48.130;-1.696;2022-07-06T06:04:52;5.93;;;4.07;;
17173;SDS011;8702;48.130;-1.696;2022-07-06T06:07:19;4.00;;;3.60;;
17173;SDS011;8702;48.130;-1.696;2022-07-06T06:09:46;5.60;;;3.73;;
17173;SDS011;8702;48.130;-1.696;2022-07-06T06:12:15;4.43;;;3.43;;
17173;SDS011;8702;48.130;-1.696;2022-07-06T06:14:42;6.80;;;3.70;;
17173;SDS011;8702;48.130;-1.696;2022-07-06T06:17:09;3.73;;;3.17;;
17173;SDS011;8702;48.130;-1.696;2022-07-06T06:19:36;5.40;;;3.47;;
17173;SDS011;8702;48.130;-1.696;2022-07-06T06:22:03;6.33;;;3.60;;
17173;SDS011;8702;48.130;-1.696;2022-07-06T06:24:30;3.93;;;2.83;;
17173;SDS011;8702;48.130;-1.696;2022-07-06T06:26:57;7.07;;;3.23;;
17173;SDS011;8702;48.130;-1.696;2022-07-06T06:29:26;5.53;;;3.03;;
17173;SDS011;8702;48.130;-1.696;2022-07-06T06:31:53;6.47;;;3.00;;
17173;SDS011;8702;48.130;-1.696;2022-07-06T06:34:20;5.70;;;3.03;;
17173;SDS011;8702;48.130;-1.696;2022-07-06T06:36:47;4.10;;;2.27;;
17173;SDS011;8702;48.130;-1.696;2022-07-06T06:39:14;5.67;;;3.00;;
17173;SDS011;8702;48.130;-1.696;2022-07-06T06:41:41;5.63;;;2.60;;
17173;SDS011;8702;48.130;-1.696;2022-07-06T06:44:08;7.97;;;2.50;;
17173;SDS011;8702;48.130;-1.696;2022-07-06T06:46:36;6.40;;;2.87;;
17173;SDS011;8702;48.130;-1.696;2022-07-06T06:49:04;2.97;;;2.40;;
17173;SDS011;8702;48.130;-1.696;2022-07-06T06:51:31;4.10;;;2.20;;
17173;SDS011;8702;48.130;-1.696;2022-07-06T06:53:58;4.97;;;2.30;;
17173;SDS011;8702;48.130;-1.696;2022-07-06T06:56:25;4.90;;;2.33;;
17173;SDS011;8702;48.130;-1.696;2022-07-06T06:58:52;5.43;;;2.13;;
17173;SDS011;8702;48.130;-1.696;2022-07-06T07:01:19;4.67;;;2.13;;
17173;SDS011;8702;48.130;-1.696;2022-07-06T07:03:49;6.93;;;2.77;;
17173;SDS011;8702;48.130;-1.696;2022-07-06T07:06:16;4.97;;;2.27;;
17173;SDS011;8702;48.130;-1.696;2022-07-06T07:08:43;4.33;;;2.40;;
17173;SDS011;8702;48.130;-1.696;2022-07-06T07:11:10;4.50;;;2.10;;
17173;SDS011;8702;48.130;-1.696;2022-07-06T07:13:37;4.70;;;2.27;;
17173;SDS011;8702;48.130;-1.696;2022-07-06T07:16:04;3.23;;;1.90;;
17173;SDS011;8702;48.130;-1.696;2022-07-06T07:18:32;5.53;;;2.20;;
17173;SDS011;8702;48.130;-1.696;2022-07-06T07:21:00;3.63;;;2.00;;
17173;SDS011;8702;48.130;-1.696;2022-07-06T07:23:27;3.43;;;1.97;;
17173;SDS011;8702;48.130;-1.696;2022-07-06T07:25:55;4.37;;;2.00;;
17173;SDS011;8702;48.130;-1.696;2022-07-06T07:28:22;5.47;;;2.30;;
17173;SDS011;8702;48.130;-1.696;2022-07-06T07:30:49;4.03;;;2.10;;
17173;SDS011;8702;48.130;-1.696;2022-07-06T07:33:16;5.23;;;2.00;;
17173;SDS011;8702;48.130;-1.696;2022-07-06T07:35:43;4.73;;;1.80;;
17173;SDS011;8702;48.130;-1.696;2022-07-06T07:38:11;7.63;;;2.00;;
17173;SDS011;8702;48.130;-1.696;2022-07-06T07:40:38;4.67;;;1.97;;
17173;SDS011;8702;48.130;-1.696;2022-07-06T07:43:05;5.83;;;1.90;;
17173;SDS011;8702;48.130;-1.696;2022-07-06T07:45:32;3.73;;;2.10;;
17173;SDS011;8702;48.130;-1.696;2022-07-06T07:47:59;6.40;;;2.43;;
17173;SDS011;8702;48.130;-1.696;2022-07-06T07:50:26;5.50;;;1.90;;
17173;SDS011;8702;48.130;-1.696;2022-07-06T07:52:54;3.83;;;2.07;;
17173;SDS011;8702;48.130;-1.696;2022-07-06T07:55:23;3.87;;;1.63;;
17173;SDS011;8702;48.130;-1.696;2022-07-06T07:57:50;4.33;;;1.93;;
17173;SDS011;8702;48.130;-1.696;2022-07-06T08:00:17;3.47;;;1.63;;
17173;SDS011;8702;48.130;-1.696;2022-07-06T08:02:46;4.47;;;2.00;;
17173;SDS011;8702;48.130;-1.696;2022-07-06T08:05:13;2.70;;;1.90;;
17173;SDS011;8702;48.130;-1.696;2022-07-06T08:07:41;11.57;;;2.20;;
17173;SDS011;8702;48.130;-1.696;2022-07-06T08:10:08;6.53;;;2.10;;
17173;SDS011;8702;48.130;-1.696;2022-07-06T08:12:37;5.40;;;2.10;;
17173;SDS011;8702;48.130;-1.696;2022-07-06T08:15:04;4.23;;;1.90;;
17173;SDS011;8702;48.130;-1.696;2022-07-06T08:17:32;5.10;;;2.00;;
17173;SDS011;8702;48.130;-1.696;2022-07-06T08:19:59;3.73;;;1.90;;
17173;SDS011;8702;48.130;-1.696;2022-07-06T08:22:26;6.20;;;1.60;;
17173;SDS011;8702;48.130;-1.696;2022-07-06T08:24:54;5.73;;;2.40;;
17173;SDS011;8702;48.130;-1.696;2022-07-06T08:27:23;4.33;;;1.80;;
17173;SDS011;8702;48.130;-1.696;2022-07-06T08:29:51;6.33;;;1.83;;
17173;SDS011;8702;48.130;-1.696;2022-07-06T08:32:18;3.43;;;1.80;;
17173;SDS011;8702;48.130;-1.696;2022-07-06T08:34:46;4.13;;;1.57;;
17173;SDS011;8702;48.130;-1.696;2022-07-06T08:37:13;3.67;;;1.87;;
17173;SDS011;8702;48.130;-1.696;2022-07-06T08:39:40;3.90;;;2.07;;
17173;SDS011;8702;48.130;-1.696;2022-07-06T08:42:07;4.87;;;1.73;;
17173;SDS011;8702;48.130;-1.696;2022-07-06T08:44:35;4.93;;;1.80;;
17173;SDS011;8702;48.130;-1.696;2022-07-06T08:47:05;4.93;;;2.03;;
17173;SDS011;8702;48.130;-1.696;2022-07-06T08:49:32;5.37;;;1.63;;
17173;SDS011;8702;48.130;-1.696;2022-07-06T08:52:02;3.90;;;1.73;;
17173;SDS011;8702;48.130;-1.696;2022-07-06T08:54:30;4.20;;;2.00;;
17173;SDS011;8702;48.130;-1.696;2022-07-06T08:56:57;4.77;;;1.70;;
17173;SDS011;8702;48.130;-1.696;2022-07-06T08:59:25;4.40;;;2.23;;
17173;SDS011;8702;48.130;-1.696;2022-07-06T09:01:52;5.53;;;2.03;;
17173;SDS011;8702;48.130;-1.696;2022-07-06T09:04:22;5.10;;;2.00;;
17173;SDS011;8702;48.130;-1.696;2022-07-06T09:06:50;4.93;;;2.40;;
17173;SDS011;8702;48.130;-1.696;2022-07-06T09:09:20;4.50;;;1.47;;
17173;SDS011;8702;48.130;-1.696;2022-07-06T09:11:49;4.33;;;1.60;;
17173;SDS011;8702;48.130;-1.696;2022-07-06T09:14:16;5.83;;;1.63;;
17173;SDS011;8702;48.130;-1.696;2022-07-06T09:16:44;5.40;;;1.70;;
17173;SDS011;8702;48.130;-1.696;2022-07-06T09:19:12;2.90;;;1.30;;
17173;SDS011;8702;48.130;-1.696;2022-07-06T09:21:41;3.53;;;1.77;;
17173;SDS011;8702;48.130;-1.696;2022-07-06T09:24:09;3.07;;;1.70;;
17173;SDS011;8702;48.130;-1.696;2022-07-06T09:26:38;3.43;;;1.53;;
17173;SDS011;8702;48.130;-1.696;2022-07-06T09:29:06;3.67;;;2.00;;
17173;SDS011;8702;48.130;-1.696;2022-07-06T09:31:33;5.43;;;1.70;;
17173;SDS011;8702;48.130;-1.696;2022-07-06T09:34:01;1.70;;;1.20;;
17173;SDS011;8702;48.130;-1.696;2022-07-06T09:36:37;3.80;;;1.67;;
17173;SDS011;8702;48.130;-1.696;2022-07-06T09:39:16;2.87;;;1.43;;
17173;SDS011;8702;48.130;-1.696;2022-07-06T09:41:45;3.80;;;1.80;;
17173;SDS011;8702;48.130;-1.696;2022-07-06T09:44:12;3.87;;;1.50;;
17173;SDS011;8702;48.130;-1.696;2022-07-06T09:46:45;2.77;;;1.40;;
17173;SDS011;8702;48.130;-1.696;2022-07-06T09:49:13;2.30;;;1.20;;
17173;SDS011;8702;48.130;-1.696;2022-07-06T09:51:44;2.43;;;1.40;;
17173;SDS011;8702;48.130;-1.696;2022-07-06T09:54:11;3.37;;;1.30;;
17173;SDS011;8702;48.130;-1.696;2022-07-06T09:56:40;5.83;;;1.30;;
17173;SDS011;8702;48.130;-1.696;2022-07-06T09:59:08;1.90;;;1.23;;
17173;SDS011;8702;48.130;-1.696;2022-07-06T10:01:36;4.23;;;1.20;;
17173;SDS011;8702;48.130;-1.696;2022-07-06T10:04:04;2.27;;;1.33;;
17173;SDS011;8702;48.130;-1.696;2022-07-06T10:06:32;1.70;;;1.20;;
17173;SDS011;8702;48.130;-1.696;2022-07-06T10:09:00;2.67;;;1.30;;
17173;SDS011;8702;48.130;-1.696;2022-07-06T10:11:28;2.27;;;1.20;;
17173;SDS011;8702;48.130;-1.696;2022-07-06T10:13:58;2.57;;;1.50;;
17173;SDS011;8702;48.130;-1.696;2022-07-06T10:16:27;2.93;;;1.80;;
17173;SDS011;8702;48.130;-1.696;2022-07-06T10:18:55;2.90;;;1.50;;
17173;SDS011;8702;48.130;-1.696;2022-07-06T10:21:22;2.60;;;1.43;;
17173;SDS011;8702;48.130;-1.696;2022-07-06T10:23:49;1.93;;;1.20;;
17173;SDS011;8702;48.130;-1.696;2022-07-06T10:26:17;2.53;;;1.20;;
17173;SDS011;8702;48.130;-1.696;2022-07-06T10:28:44;2.07;;;1.17;;
17173;SDS011;8702;48.130;-1.696;2022-07-06T10:31:14;3.47;;;1.60;;
17173;SDS011;8702;48.130;-1.696;2022-07-06T10:33:42;3.93;;;1.63;;
17173;SDS011;8702;48.130;-1.696;2022-07-06T10:36:10;3.77;;;1.70;;
17173;SDS011;8702;48.130;-1.696;2022-07-06T10:38:38;1.50;;;1.00;;
17173;SDS011;8702;48.130;-1.696;2022-07-06T10:41:06;3.07;;;1.20;;
17173;SDS011;8702;48.130;-1.696;2022-07-06T10:43:35;1.43;;;1.17;;
17173;SDS011;8702;48.130;-1.696;2022-07-06T10:46:06;2.00;;;1.00;;
17173;SDS011;8702;48.130;-1.696;2022-07-06T10:48:37;5.87;;;1.10;;
17173;SDS011;8702;48.130;-1.696;2022-07-06T10:51:06;1.40;;;0.90;;
17173;SDS011;8702;48.130;-1.696;2022-07-06T10:53:34;2.90;;;1.30;;
17173;SDS011;8702;48.130;-1.696;2022-07-06T10:56:03;2.27;;;1.13;;
17173;SDS011;8702;48.130;-1.696;2022-07-06T10:58:35;1.50;;;1.00;;
17173;SDS011;8702;48.130;-1.696;2022-07-06T11:01:16;3.13;;;1.30;;
17173;SDS011;8702;48.130;-1.696;2022-07-06T11:03:45;1.93;;;1.00;;
17173;SDS011;8702;48.130;-1.696;2022-07-06T11:06:14;3.87;;;1.10;;
17173;SDS011;8702;48.130;-1.696;2022-07-06T11:11:37;5.30;;;1.40;;
17173;SDS011;8702;48.130;-1.696;2022-07-06T11:14:06;2.17;;;1.10;;
17173;SDS011;8702;48.130;-1.696;2022-07-06T11:16:36;2.33;;;1.07;;
17173;SDS011;8702;48.130;-1.696;2022-07-06T11:19:07;2.30;;;1.10;;
17173;SDS011;8702;48.130;-1.696;2022-07-06T11:21:37;2.33;;;1.00;;
17173;SDS011;8702;48.130;-1.696;2022-07-06T11:24:07;3.27;;;1.10;;
17173;SDS011;8702;48.130;-1.696;2022-07-06T11:26:36;2.00;;;0.90;;
17173;SDS011;8702;48.130;-1.696;2022-07-06T11:29:03;1.10;;;0.90;;
17173;SDS011;8702;48.130;-1.696;2022-07-06T11:31:35;1.80;;;1.17;;
17173;SDS011;8702;48.130;-1.696;2022-07-06T11:34:03;3.00;;;1.10;;
17173;SDS011;8702;48.130;-1.696;2022-07-06T11:36:32;4.07;;;1.20;;
17173;SDS011;8702;48.130;-1.696;2022-07-06T11:39:00;2.87;;;1.20;;
17173;SDS011;8702;48.130;-1.696;2022-07-06T11:41:27;3.93;;;1.20;;
17173;SDS011;8702;48.130;-1.696;2022-07-06T11:43:54;1.83;;;0.93;;
17173;SDS011;8702;48.130;-1.696;2022-07-06T11:46:25;1.30;;;0.90;;
17173;SDS011;8702;48.130;-1.696;2022-07-06T11:48:54;1.70;;;0.97;;
17173;SDS011;8702;48.130;-1.696;2022-07-06T11:51:22;3.27;;;1.20;;
17173;SDS011;8702;48.130;-1.696;2022-07-06T11:53:52;3.73;;;1.07;;
17173;SDS011;8702;48.130;-1.696;2022-07-06T11:56:21;2.10;;;1.13;;
17173;SDS011;8702;48.130;-1.696;2022-07-06T11:58:51;2.17;;;0.90;;
17173;SDS011;8702;48.130;-1.696;2022-07-06T12:01:19;1.10;;;0.80;;
17173;SDS011;8702;48.130;-1.696;2022-07-06T12:03:47;1.97;;;0.93;;
17173;SDS011;8702;48.130;-1.696;2022-07-06T12:06:16;2.00;;;1.00;;
17173;SDS011;8702;48.130;-1.696;2022-07-06T12:08:45;1.77;;;0.83;;
17173;SDS011;8702;48.130;-1.696;2022-07-06T12:11:24;1.87;;;0.80;;
17173;SDS011;8702;48.130;-1.696;2022-07-06T12:13:53;6.53;;;1.30;;
17173;SDS011;8702;48.130;-1.696;2022-07-06T12:16:21;1.27;;;0.90;;
17173;SDS011;8702;48.130;-1.696;2022-07-06T12:18:54;1.87;;;0.80;;
17173;SDS011;8702;48.130;-1.696;2022-07-06T12:21:21;1.40;;;0.90;;
17173;SDS011;8702;48.130;-1.696;2022-07-06T12:23:49;1.43;;;1.00;;
17173;SDS011;8702;48.130;-1.696;2022-07-06T12:26:18;3.83;;;1.20;;
17173;SDS011;8702;48.130;-1.696;2022-07-06T12:28:59;1.43;;;0.90;;
17173;SDS011;8702;48.130;-1.696;2022-07-06T12:31:31;5.00;;;1.07;;
17173;SDS011;8702;48.130;-1.696;2022-07-06T12:33:59;1.50;;;1.10;;
17173;SDS011;8702;48.130;-1.696;2022-07-06T12:36:26;1.63;;;1.00;;
17173;SDS011;8702;48.130;-1.696;2022-07-06T12:38:53;2.83;;;0.73;;
17173;SDS011;8702;48.130;-1.696;2022-07-06T12:41:27;1.97;;;1.00;;
17173;SDS011;8702;48.130;-1.696;2022-07-06T12:44:04;1.83;;;1.00;;
17173;SDS011;8702;48.130;-1.696;2022-07-06T12:46:33;3.73;;;0.90;;
17173;SDS011;8702;48.130;-1.696;2022-07-06T12:49:03;4.10;;;1.10;;
17173;SDS011;8702;48.130;-1.696;2022-07-06T12:51:53;1.70;;;0.97;;
17173;SDS011;8702;48.130;-1.696;2022-07-06T12:54:26;3.10;;;1.00;;
17173;SDS011;8702;48.130;-1.696;2022-07-06T12:57:04;2.37;;;1.07;;
17173;SDS011;8702;48.130;-1.696;2022-07-06T12:59:35;3.70;;;1.10;;
17173;SDS011;8702;48.130;-1.696;2022-07-06T13:02:03;1.70;;;1.00;;
17173;SDS011;8702;48.130;-1.696;2022-07-06T13:04:33;3.07;;;0.87;;
17173;SDS011;8702;48.130;-1.696;2022-07-06T13:07:01;5.37;;;0.83;;
17173;SDS011;8702;48.130;-1.696;2022-07-06T13:09:29;2.70;;;1.40;;
17173;SDS011;8702;48.130;-1.696;2022-07-06T13:11:56;4.57;;;1.00;;
17173;SDS011;8702;48.130;-1.696;2022-07-06T13:14:23;1.30;;;0.90;;
17173;SDS011;8702;48.130;-1.696;2022-07-06T13:16:52;4.70;;;1.00;;
17173;SDS011;8702;48.130;-1.696;2022-07-06T13:19:20;1.97;;;1.00;;
17173;SDS011;8702;48.130;-1.696;2022-07-06T13:21:47;0.73;;;0.73;;
17173;SDS011;8702;48.130;-1.696;2022-07-06T13:24:14;3.50;;;1.23;;
17173;SDS011;8702;48.130;-1.696;2022-07-06T13:26:41;3.27;;;0.97;;
17173;SDS011;8702;48.130;-1.696;2022-07-06T13:29:08;1.30;;;0.83;;
17173;SDS011;8702;48.130;-1.696;2022-07-06T13:31:36;1.07;;;0.90;;
17173;SDS011;8702;48.130;-1.696;2022-07-06T13:34:06;4.30;;;1.20;;
17173;SDS011;8702;48.130;-1.696;2022-07-06T13:36:34;2.57;;;1.47;;
17173;SDS011;8702;48.130;-1.696;2022-07-06T13:39:01;2.50;;;0.90;;
17173;SDS011;8702;48.130;-1.696;2022-07-06T13:41:28;1.57;;;0.80;;
17173;SDS011;8702;48.130;-1.696;2022-07-06T13:43:55;1.07;;;0.80;;
17173;SDS011;8702;48.130;-1.696;2022-07-06T13:46:22;1.43;;;0.70;;
17173;SDS011;8702;48.130;-1.696;2022-07-06T13:48:50;1.53;;;0.77;;
17173;SDS011;8702;48.130;-1.696;2022-07-06T13:51:18;2.93;;;1.00;;
17173;SDS011;8702;48.130;-1.696;2022-07-06T13:53:45;3.10;;;1.00;;
17173;SDS011;8702;48.130;-1.696;2022-07-06T13:56:13;1.63;;;1.00;;
17173;SDS011;8702;48.130;-1.696;2022-07-06T13:58:40;1.30;;;1.07;;
17173;SDS011;8702;48.130;-1.696;2022-07-06T14:01:07;1.57;;;1.00;;
17173;SDS011;8702;48.130;-1.696;2022-07-06T14:03:34;1.50;;;0.60;;
17173;SDS011;8702;48.130;-1.696;2022-07-06T14:06:03;1.80;;;0.90;;
17173;SDS011;8702;48.130;-1.696;2022-07-06T14:08:33;2.07;;;0.90;;
17173;SDS011;8702;48.130;-1.696;2022-07-06T14:11:01;2.13;;;1.10;;
17173;SDS011;8702;48.130;-1.696;2022-07-06T14:13:28;3.23;;;0.80;;
17173;SDS011;8702;48.130;-1.696;2022-07-06T14:15:55;8.17;;;1.20;;
17173;SDS011;8702;48.130;-1.696;2022-07-06T14:18:22;3.13;;;1.03;;
17173;SDS011;8702;48.130;-1.696;2022-07-06T14:20:50;4.57;;;1.13;;
17173;SDS011;8702;48.130;-1.696;2022-07-06T14:23:18;1.40;;;1.00;;
17173;SDS011;8702;48.130;-1.696;2022-07-06T14:25:47;2.53;;;1.10;;
17173;SDS011;8702;48.130;-1.696;2022-07-06T14:28:14;1.27;;;0.80;;
17173;SDS011;8702;48.130;-1.696;2022-07-06T14:30:43;1.03;;;0.90;;
17173;SDS011;8702;48.130;-1.696;2022-07-06T14:33:11;1.50;;;1.00;;
17173;SDS011;8702;48.130;-1.696;2022-07-06T14:35:39;2.07;;;1.10;;
17173;SDS011;8702;48.130;-1.696;2022-07-06T14:38:08;2.47;;;1.10;;
17173;SDS011;8702;48.130;-1.696;2022-07-06T14:40:35;2.30;;;0.90;;
17173;SDS011;8702;48.130;-1.696;2022-07-06T14:43:04;2.90;;;1.00;;
17173;SDS011;8702;48.130;-1.696;2022-07-06T14:45:31;1.67;;;0.93;;
17173;SDS011;8702;48.130;-1.696;2022-07-06T14:47:58;1.73;;;0.73;;
17173;SDS011;8702;48.130;-1.696;2022-07-06T14:50:26;3.50;;;1.10;;
17173;SDS011;8702;48.130;-1.696;2022-07-06T14:52:53;2.07;;;1.00;;